Time;durP1;ratioP1;P1;durP2;ratioP2;P2;SDS_P1;SDS_P2;PMS_P1;PMS_P2;Temp;Humidity;BMP_temperature;BMP_pressure;BME280_temperature;BME280_humidity;BME280_pressure;Samples;Min_cycle;Max_cycle;Signal;HPM_P1;HPM_P2
2023/02/23 00:00:20;;;;;;;6.10;2.38;;;8.80;99.90;;;;;;2067980;28;20192;-63
2023/02/23 00:01:28;;;;;;;5.82;2.80;;;8.80;99.90;;;;;;2069782;28;20279;-62
2023/02/23 00:02:34;;;;;;;4.78;2.13;;;8.70;99.90;;;;;;2067433;28;20236;-62
2023/02/23 00:03:40;;;;;;;3.45;2.10;;;8.60;99.90;;;;;;2069706;28;20581;-63
2023/02/23 00:04:46;;;;;;;4.05;2.20;;;8.60;99.90;;;;;;2073295;28;20200;-61
2023/02/23 00:05:50;;;;;;;3.03;2.17;;;8.50;99.90;;;;;;2066493;28;20654;-61
2023/02/23 00:06:56;;;;;;;4.18;2.28;;;8.40;99.90;;;;;;2067989;28;20560;-62
2023/02/23 00:08:02;;;;;;;4.28;2.20;;;8.40;99.90;;;;;;2069501;28;20204;-63
2023/02/23 00:09:09;;;;;;;5.47;2.42;;;8.40;99.90;;;;;;2066114;28;20539;-63
2023/02/23 00:10:17;;;;;;;3.67;2.40;;;8.20;99.90;;;;;;2069005;28;20224;-64
2023/02/23 00:11:23;;;;;;;4.93;2.22;;;8.20;99.90;;;;;;2065551;28;20186;-64
2023/02/23 00:12:28;;;;;;;7.13;2.40;;;8.20;99.90;;;;;;2069764;28;20201;-67
2023/02/23 00:13:36;;;;;;;3.53;2.10;;;8.20;99.90;;;;;;2069428;28;20200;-64
2023/02/23 00:14:42;;;;;;;4.07;2.15;;;8.20;99.90;;;;;;2066552;28;20275;-64
2023/02/23 00:15:48;;;;;;;3.00;2.00;;;8.30;99.90;;;;;;2069062;28;20599;-64
2023/02/23 00:16:55;;;;;;;6.10;2.60;;;8.30;99.90;;;;;;2069612;28;20189;-63
2023/02/23 00:17:59;;;;;;;3.80;2.08;;;8.30;99.90;;;;;;2068894;28;20201;-65
2023/02/23 00:19:06;;;;;;;3.78;2.00;;;8.20;99.90;;;;;;2061757;28;20559;-65
2023/02/23 00:20:11;;;;;;;4.22;2.15;;;8.20;99.90;;;;;;2061782;28;20213;-64
2023/02/23 00:21:36;;;;;;;3.38;2.03;;;8.20;99.90;;;;;;2067944;28;20263;-64
2023/02/23 00:22:42;;;;;;;4.53;1.98;;;8.30;99.90;;;;;;2066257;28;20740;-64
2023/02/23 00:23:51;;;;;;;3.28;2.15;;;8.30;99.90;;;;;;2068964;28;20182;-64
2023/02/23 00:24:58;;;;;;;5.47;2.28;;;8.40;99.90;;;;;;2066363;28;20196;-64
2023/02/23 00:26:04;;;;;;;3.38;1.75;;;8.40;99.90;;;;;;2069451;28;21070;-64
2023/02/23 00:27:16;;;;;;;5.28;1.80;;;8.40;99.90;;;;;;2069429;28;20213;-64
2023/02/23 00:28:21;;;;;;;2.45;1.65;;;8.40;99.90;;;;;;2067179;28;20191;-63
2023/02/23 00:29:27;;;;;;;3.80;1.90;;;8.40;99.90;;;;;;2069496;28;20552;-64
2023/02/23 00:30:33;;;;;;;2.90;1.60;;;8.40;99.90;;;;;;2066335;28;20186;-64
2023/02/23 00:31:39;;;;;;;2.75;1.75;;;8.30;99.90;;;;;;2069539;28;20256;-64
2023/02/23 00:32:45;;;;;;;3.50;1.77;;;8.20;99.90;;;;;;2068720;28;20210;-64
2023/02/23 00:33:57;;;;;;;3.97;2.00;;;8.20;99.90;;;;;;2066190;28;20617;-65
2023/02/23 00:35:03;;;;;;;2.78;1.80;;;8.10;99.90;;;;;;2069516;28;20190;-64
2023/02/23 00:36:14;;;;;;;5.60;1.98;;;8.20;99.90;;;;;;2070104;28;20192;-64
2023/02/23 00:37:21;;;;;;;4.70;1.50;;;8.20;99.90;;;;;;2070047;28;20191;-64
2023/02/23 00:38:27;;;;;;;5.03;1.80;;;8.20;99.90;;;;;;2069074;28;20193;-64
2023/02/23 00:39:33;;;;;;;4.13;1.50;;;8.20;99.90;;;;;;2069401;28;20184;-64
2023/02/23 00:40:42;;;;;;;2.35;1.40;;;8.10;99.90;;;;;;2069403;28;20199;-64
2023/02/23 00:41:49;;;;;;;2.33;1.48;;;8.10;99.90;;;;;;2066767;28;20672;-63
2023/02/23 00:42:54;;;;;;;2.95;1.30;;;8.10;99.90;;;;;;2069167;28;20196;-63
2023/02/23 00:44:00;;;;;;;3.70;1.73;;;8.10;99.90;;;;;;2070039;28;20186;-64
2023/02/23 00:45:09;;;;;;;1.40;1.25;;;8.10;99.90;;;;;;2069792;28;20666;-63
2023/02/23 00:46:20;;;;;;;2.83;1.35;;;8.10;99.90;;;;;;2070051;28;20222;-64
2023/02/23 00:47:26;;;;;;;1.65;1.30;;;8.00;99.90;;;;;;2066890;28;20189;-64
2023/02/23 00:48:33;;;;;;;2.97;1.63;;;8.00;99.90;;;;;;2069481;28;20213;-64
2023/02/23 00:49:39;;;;;;;3.35;1.58;;;8.00;99.90;;;;;;2066121;28;20212;-64
2023/02/23 00:50:45;;;;;;;2.20;1.45;;;8.00;99.90;;;;;;2069564;28;20198;-64
2023/02/23 00:51:51;;;;;;;2.67;1.30;;;8.10;99.90;;;;;;2069643;28;20189;-64
2023/02/23 00:52:58;;;;;;;1.42;1.30;;;8.10;99.90;;;;;;2066277;28;20255;-64
2023/02/23 00:54:05;;;;;;;2.28;1.70;;;8.10;99.90;;;;;;2069533;28;20190;-64
2023/02/23 00:55:11;;;;;;;2.50;1.52;;;8.00;99.90;;;;;;2068676;28;20196;-64
2023/02/23 00:56:17;;;;;;;2.38;1.20;;;8.00;99.90;;;;;;2069462;28;20178;-64
2023/02/23 00:57:22;;;;;;;4.20;1.30;;;7.90;99.90;;;;;;2069860;28;20202;-63
2023/02/23 00:58:30;;;;;;;2.92;1.10;;;7.90;99.90;;;;;;2065531;28;20636;-64
2023/02/23 00:59:36;;;;;;;1.70;1.17;;;7.90;99.90;;;;;;2069039;28;20299;-64
2023/02/23 01:00:41;;;;;;;3.17;1.10;;;7.90;99.90;;;;;;2069259;28;20185;-64
2023/02/23 01:01:48;;;;;;;2.08;1.08;;;7.90;99.90;;;;;;2065931;28;20187;-64
2023/02/23 01:02:53;;;;;;;1.10;1.00;;;8.00;99.90;;;;;;2069301;28;20199;-63
2023/02/23 01:04:00;;;;;;;1.17;1.00;;;8.00;99.90;;;;;;2069174;28;20189;-64
2023/02/23 01:05:04;;;;;;;2.90;1.13;;;8.10;99.90;;;;;;2066967;28;20713;-64
2023/02/23 01:06:14;;;;;;;2.10;1.00;;;8.10;99.90;;;;;;2069625;28;20189;-64
2023/02/23 01:07:24;;;;;;;2.45;1.00;;;8.10;99.90;;;;;;2065494;28;20181;-64
2023/02/23 01:08:35;;;;;;;2.83;1.20;;;8.10;99.90;;;;;;2068889;28;20185;-64
2023/02/23 01:09:42;;;;;;;1.50;1.00;;;8.10;99.90;;;;;;2065576;28;20276;-64
2023/02/23 01:10:52;;;;;;;2.35;1.13;;;8.10;99.90;;;;;;2069398;28;20185;-64
2023/02/23 01:12:01;;;;;;;2.70;1.30;;;8.00;99.90;;;;;;2069501;28;20193;-64
2023/02/23 01:13:04;;;;;;;2.30;1.08;;;8.00;99.90;;;;;;2069614;28;20721;-63
2023/02/23 01:14:10;;;;;;;2.53;1.20;;;8.00;99.90;;;;;;2069525;28;20227;-64
2023/02/23 01:15:17;;;;;;;3.05;1.20;;;8.00;99.90;;;;;;2065311;28;20639;-64
2023/02/23 01:16:30;;;;;;;1.52;0.95;;;8.00;99.90;;;;;;2068522;28;20698;-64
2023/02/23 01:17:35;;;;;;;1.38;1.00;;;7.90;99.90;;;;;;2064890;28;20697;-63
2023/02/23 01:18:47;;;;;;;2.53;1.38;;;7.90;99.90;;;;;;2069096;28;20190;-63
2023/02/23 01:19:54;;;;;;;3.22;1.10;;;7.80;99.90;;;;;;2069474;28;20214;-63
2023/02/23 01:21:01;;;;;;;2.17;1.00;;;7.70;99.90;;;;;;2069743;28;20218;-63
2023/02/23 01:22:04;;;;;;;2.10;1.88;;;7.70;99.90;;;;;;2069644;28;20185;-63
2023/02/23 01:23:12;;;;;;;2.35;1.10;;;7.60;99.90;;;;;;2069086;28;20615;-63
2023/02/23 01:24:18;;;;;;;2.75;1.95;;;7.50;99.90;;;;;;2069040;28;20172;-63
2023/02/23 01:25:23;;;;;;;1.75;1.17;;;7.50;99.90;;;;;;2069006;28;20671;-64
2023/02/23 01:26:33;;;;;;;1.95;1.00;;;7.40;99.90;;;;;;2065809;28;20184;-64
2023/02/23 01:27:40;;;;;;;1.33;1.00;;;7.40;99.90;;;;;;2068928;28;20197;-63
2023/02/23 01:28:51;;;;;;;1.48;1.10;;;7.40;99.90;;;;;;2069591;28;20181;-64
2023/02/23 01:29:57;;;;;;;1.23;1.00;;;7.40;99.90;;;;;;2069809;28;20215;-64
2023/02/23 01:31:08;;;;;;;2.22;1.00;;;7.40;99.90;;;;;;2069487;28;20619;-63
2023/02/23 01:32:09;;;;;;;2.28;1.27;;;7.40;99.90;;;;;;2069141;28;20203;-63
2023/02/23 01:33:15;;;;;;;1.98;1.35;;;7.50;99.90;;;;;;2068995;28;20252;-63
2023/02/23 01:34:21;;;;;;;1.60;1.05;;;7.50;99.90;;;;;;2069271;28;20581;-63
2023/02/23 01:35:28;;;;;;;2.08;1.20;;;7.40;99.90;;;;;;2069651;28;20583;-63
2023/02/23 01:36:37;;;;;;;2.80;1.08;;;7.40;99.90;;;;;;2069785;28;20218;-62
2023/02/23 01:37:43;;;;;;;1.90;1.23;;;7.40;99.90;;;;;;2068152;28;20278;-62
2023/02/23 01:38:49;;;;;;;2.42;1.20;;;7.50;99.90;;;;;;2068461;28;20196;-62
2023/02/23 01:39:55;;;;;;;1.85;1.10;;;7.50;99.90;;;;;;2069375;28;20218;-63
2023/02/23 01:41:00;;;;;;;2.60;1.40;;;7.40;99.90;;;;;;2069608;28;20222;-63
2023/02/23 01:42:12;;;;;;;1.92;1.10;;;7.40;99.90;;;;;;2069590;28;20221;-62
2023/02/23 01:43:24;;;;;;;2.65;1.25;;;7.40;99.90;;;;;;2065754;28;20183;-62
2023/02/23 01:44:30;;;;;;;3.15;1.05;;;7.40;99.90;;;;;;2069094;28;20551;-63
2023/02/23 01:45:39;;;;;;;2.55;1.30;;;7.40;99.90;;;;;;2065570;28;20188;-62
2023/02/23 01:46:44;;;;;;;1.85;1.25;;;7.40;99.90;;;;;;2068534;28;20222;-63
2023/02/23 01:47:53;;;;;;;2.30;1.40;;;7.40;99.90;;;;;;2068381;28;20630;-65
2023/02/23 01:48:55;;;;;;;2.53;1.10;;;7.50;99.90;;;;;;2068850;28;20663;-62
2023/02/23 01:50:01;;;;;;;2.53;1.20;;;7.40;99.90;;;;;;2065951;28;21312;-63
2023/02/23 01:51:12;;;;;;;2.47;1.20;;;7.50;99.90;;;;;;2061342;28;20202;-63
2023/02/23 01:52:18;;;;;;;2.88;1.13;;;7.50;99.90;;;;;;2062496;28;20182;-63
2023/02/23 01:53:27;;;;;;;2.50;1.30;;;7.50;99.90;;;;;;2067129;28;20242;-63
2023/02/23 01:54:36;;;;;;;4.20;1.15;;;7.40;99.90;;;;;;2065747;28;20205;-63
2023/02/23 01:55:42;;;;;;;2.70;1.10;;;7.40;99.90;;;;;;2067852;28;20223;-63
2023/02/23 01:56:56;;;;;;;2.17;1.20;;;7.40;99.90;;;;;;2064747;28;20232;-63
2023/02/23 01:58:14;;;;;;;1.40;1.00;;;7.50;99.90;;;;;;2068481;28;20663;-63
2023/02/23 01:59:19;;;;;;;2.05;1.30;;;7.50;99.90;;;;;;2066472;28;20241;-64
2023/02/23 02:00:26;;;;;;;1.25;1.15;;;7.50;99.90;;;;;;2068517;28;20239;-63
2023/02/23 02:01:31;;;;;;;1.52;1.20;;;7.50;99.90;;;;;;2069571;28;20667;-63
2023/02/23 02:02:37;;;;;;;1.63;1.20;;;7.60;99.90;;;;;;2069438;28;20192;-63
2023/02/23 02:03:57;;;;;;;1.02;0.90;;;7.50;99.90;;;;;;2068347;28;20753;-64
2023/02/23 02:05:07;;;;;;;1.30;1.20;;;7.60;99.90;;;;;;2068460;28;20265;-63
2023/02/23 02:06:14;;;;;;;0.90;0.90;;;7.60;99.90;;;;;;2068118;28;20188;-63
2023/02/23 02:07:27;;;;;;;1.80;1.20;;;7.60;99.90;;;;;;2062237;28;20186;-63
2023/02/23 02:08:43;;;;;;;2.55;1.08;;;7.60;99.90;;;;;;2068328;28;20185;-63
2023/02/23 02:11:34;;;;;;;3.22;2.00;;;7.60;99.90;;;;;;2062314;28;20181;-63
2023/02/23 02:12:50;;;;;;;1.90;1.30;;;7.50;99.90;;;;;;2065519;28;20200;-62
2023/02/23 02:14:14;;;;;;;1.50;1.40;;;7.50;99.90;;;;;;2068405;28;20197;-63
2023/02/23 02:15:24;;;;;;;3.13;1.27;;;7.50;99.90;;;;;;2063400;28;20284;-62
2023/02/23 02:17:01;;;;;;;2.38;1.38;;;7.60;99.90;;;;;;2065920;28;20995;-63
2023/02/23 02:18:41;;;;;;;2.67;1.52;;;7.70;99.90;;;;;;2066931;28;20197;-63
2023/02/23 02:20:25;;;;;;;1.80;1.27;;;7.70;99.90;;;;;;2066347;28;20215;-62
2023/02/23 02:22:26;;;;;;;1.85;1.30;;;7.80;99.90;;;;;;2065521;28;20276;-63
2023/02/23 02:24:24;;;;;;;2.55;1.20;;;7.80;99.90;;;;;;2065936;28;20200;-63
2023/02/23 02:25:44;;;;;;;4.40;1.92;;;7.80;99.90;;;;;;2067383;28;20179;-63
2023/02/23 02:27:11;;;;;;;1.38;1.17;;;7.80;99.90;;;;;;2066894;28;20275;-63
2023/02/23 02:28:33;;;;;;;1.40;1.00;;;7.80;99.90;;;;;;2066489;28;20205;-63
2023/02/23 02:30:25;;;;;;;2.72;1.08;;;7.80;99.90;;;;;;2061629;28;20601;-63
2023/02/23 02:32:13;;;;;;;3.50;1.50;;;7.90;99.90;;;;;;2067014;28;20204;-62
2023/02/23 02:34:06;;;;;;;1.55;1.10;;;7.90;99.90;;;;;;2065739;28;20189;-63
2023/02/23 02:35:39;;;;;;;1.42;1.08;;;7.90;99.90;;;;;;2065782;28;20240;-63
2023/02/23 02:37:14;;;;;;;2.42;1.20;;;7.90;99.90;;;;;;2067866;28;20182;-63
2023/02/23 02:39:06;;;;;;;2.33;1.20;;;8.00;99.90;;;;;;2065394;28;20195;-63
2023/02/23 02:40:37;;;;;;;2.22;1.20;;;8.00;99.90;;;;;;2065724;28;20217;-63
2023/02/23 02:42:16;;;;;;;2.47;1.10;;;8.00;99.90;;;;;;2065924;28;20607;-63
2023/02/23 02:43:39;;;;;;;1.85;1.27;;;8.00;99.90;;;;;;2069351;28;20205;-63
2023/02/23 02:44:56;;;;;;;2.90;1.05;;;7.90;99.90;;;;;;2065976;28;20357;-63
2023/02/23 02:46:16;;;;;;;2.03;1.20;;;7.90;99.90;;;;;;2068139;28;20250;-63
2023/02/23 02:47:34;;;;;;;1.65;1.10;;;8.00;99.90;;;;;;2066216;28;20195;-63
2023/02/23 02:49:00;;;;;;;3.80;1.40;;;8.00;99.90;;;;;;2060389;28;20199;-63
2023/02/23 02:50:14;;;;;;;2.95;1.08;;;8.00;99.90;;;;;;2063515;28;20735;-63
2023/02/23 02:51:30;;;;;;;1.23;1.10;;;7.90;99.90;;;;;;2058917;28;20714;-64
2023/02/23 02:52:48;;;;;;;2.53;1.90;;;7.90;99.90;;;;;;2068057;28;20194;-63
2023/02/23 02:54:19;;;;;;;1.48;1.20;;;8.00;99.90;;;;;;2068012;28;20197;-63
2023/02/23 02:55:33;;;;;;;1.73;1.17;;;8.00;99.90;;;;;;2064062;28;20185;-63
2023/02/23 02:56:42;;;;;;;2.38;1.00;;;8.00;99.90;;;;;;2070450;28;20192;-63
2023/02/23 02:57:51;;;;;;;1.55;1.10;;;8.00;99.90;;;;;;2073968;28;20210;-63
2023/02/23 02:58:54;;;;;;;1.63;1.20;;;8.10;99.90;;;;;;2068578;28;20275;-63
2023/02/23 04:18:27;;;;;;;3.30;1.23;;;7.10;99.90;;;;;;2061764;28;20197;-63
2023/02/23 04:19:32;;;;;;;3.35;1.40;;;7.20;99.90;;;;;;2060036;28;20198;-63
2023/02/23 04:20:38;;;;;;;2.40;1.40;;;7.20;99.90;;;;;;2062090;28;20194;-63
2023/02/23 04:21:44;;;;;;;2.50;1.30;;;7.20;99.90;;;;;;2069403;28;20189;-63
2023/02/23 04:22:50;;;;;;;4.18;1.50;;;7.20;99.90;;;;;;2070372;28;20217;-64
2023/02/23 04:23:55;;;;;;;2.05;1.58;;;7.10;99.90;;;;;;2070293;28;20197;-63
2023/02/23 04:25:01;;;;;;;2.15;1.30;;;7.10;99.90;;;;;;2069898;28;20195;-63
2023/02/23 04:26:04;;;;;;;2.28;1.35;;;7.10;99.90;;;;;;2069697;28;20617;-63
2023/02/23 04:27:09;;;;;;;2.50;1.30;;;7.20;99.90;;;;;;2069400;28;20197;-63
2023/02/23 04:28:15;;;;;;;2.63;1.33;;;7.20;99.90;;;;;;2069652;28;20664;-63
2023/02/23 04:29:21;;;;;;;3.50;1.20;;;7.20;99.90;;;;;;2070153;28;20193;-63
2023/02/23 04:30:27;;;;;;;1.90;1.10;;;7.20;99.90;;;;;;2070276;28;20671;-63
2023/02/23 04:31:32;;;;;;;2.75;1.17;;;7.20;99.90;;;;;;2069757;28;20201;-64
2023/02/23 04:32:38;;;;;;;1.80;1.27;;;7.20;99.90;;;;;;2069662;28;20280;-63
2023/02/23 04:33:44;;;;;;;2.05;1.15;;;7.20;99.90;;;;;;2069427;28;20190;-63
2023/02/23 04:34:49;;;;;;;2.25;1.10;;;7.20;99.90;;;;;;2070181;28;20183;-63
2023/02/23 04:35:55;;;;;;;2.58;1.10;;;7.20;99.90;;;;;;2070207;28;20194;-63
2023/02/23 04:37:01;;;;;;;3.28;1.40;;;7.20;99.90;;;;;;2070238;28;20199;-63
2023/02/23 04:38:04;;;;;;;3.08;1.10;;;7.20;99.90;;;;;;2069444;28;20193;-63
2023/02/23 04:39:09;;;;;;;4.97;1.38;;;7.20;99.90;;;;;;2069608;28;20275;-63
2023/02/23 04:40:15;;;;;;;4.00;1.40;;;7.20;99.90;;;;;;2069685;28;20186;-63
2023/02/23 04:41:21;;;;;;;3.35;1.63;;;7.20;99.90;;;;;;2069774;28;20218;-63
2023/02/23 04:42:27;;;;;;;1.58;1.23;;;7.20;99.90;;;;;;2070304;28;20183;-63
2023/02/23 04:43:33;;;;;;;3.67;1.80;;;7.20;99.90;;;;;;2069431;28;20251;-63
2023/02/23 04:44:38;;;;;;;3.30;1.60;;;7.20;99.90;;;;;;2065429;28;20273;-63
2023/02/23 04:45:44;;;;;;;4.63;1.50;;;7.20;99.90;;;;;;2069570;28;20776;-63
2023/02/23 04:46:50;;;;;;;4.93;1.48;;;7.20;99.90;;;;;;2069643;28;20273;-63
2023/02/23 04:47:56;;;;;;;6.30;1.90;;;7.10;99.90;;;;;;2065992;28;20188;-63
2023/02/23 04:49:03;;;;;;;8.13;3.92;;;7.10;99.90;;;;;;2069343;28;20682;-63
2023/02/23 04:50:05;;;;;;;6.93;3.70;;;7.10;99.90;;;;;;2069191;28;20208;-63
2023/02/23 04:51:09;;;;;;;4.53;2.60;;;7.10;99.90;;;;;;2063232;28;20724;-64
2023/02/23 04:52:15;;;;;;;8.68;3.10;;;7.00;99.90;;;;;;2070059;28;20192;-63
2023/02/23 04:53:21;;;;;;;7.53;3.00;;;7.00;99.90;;;;;;2069994;28;20189;-63
2023/02/23 04:54:27;;;;;;;5.80;2.45;;;7.00;99.90;;;;;;2066001;28;20925;-63
2023/02/23 04:55:33;;;;;;;8.23;5.20;;;7.00;99.90;;;;;;2069526;28;20219;-63
2023/02/23 04:56:39;;;;;;;4.72;2.60;;;7.00;99.90;;;;;;2069461;28;20617;-64
2023/02/23 04:57:45;;;;;;;3.63;2.60;;;7.00;99.90;;;;;;2065960;28;20197;-63
2023/02/23 04:58:52;;;;;;;3.75;2.20;;;6.90;99.90;;;;;;2069502;28;20189;-63
2023/02/23 04:59:58;;;;;;;5.50;2.15;;;6.90;99.90;;;;;;2069550;28;20210;-64
2023/02/23 05:01:08;;;;;;;7.07;3.70;;;6.90;99.90;;;;;;2070011;28;20217;-68
2023/02/23 05:02:10;;;;;;;6.50;4.53;;;6.90;99.90;;;;;;2070040;28;20194;-63
2023/02/23 05:03:16;;;;;;;7.05;3.55;;;6.80;99.90;;;;;;2067256;28;20805;-63
2023/02/23 05:04:22;;;;;;;6.82;3.35;;;6.80;99.90;;;;;;2060096;28;20203;-63
2023/02/23 05:05:27;;;;;;;7.28;3.05;;;6.80;99.90;;;;;;2067960;28;20192;-63
2023/02/23 05:06:33;;;;;;;6.22;3.25;;;6.70;99.90;;;;;;2064430;28;20185;-63
2023/02/23 05:07:39;;;;;;;5.15;2.83;;;6.70;99.90;;;;;;2069895;28;20178;-63
2023/02/23 05:08:45;;;;;;;4.93;2.92;;;6.70;99.90;;;;;;2069767;28;20685;-64
2023/02/23 05:09:50;;;;;;;6.10;2.78;;;6.70;99.90;;;;;;2065972;28;20207;-63
2023/02/23 05:10:56;;;;;;;6.32;2.72;;;6.70;99.90;;;;;;2069220;28;20630;-63
2023/02/23 05:12:02;;;;;;;5.38;2.47;;;6.60;99.90;;;;;;2069353;28;20247;-64
2023/02/23 05:13:05;;;;;;;4.03;1.83;;;6.60;99.90;;;;;;2065484;28;20275;-63
2023/02/23 05:14:11;;;;;;;3.92;2.03;;;6.50;99.90;;;;;;2069568;28;20202;-63
2023/02/23 05:15:17;;;;;;;4.10;2.60;;;6.50;99.90;;;;;;2069251;28;20214;-63
2023/02/23 05:16:23;;;;;;;7.45;3.10;;;6.40;99.90;;;;;;2066344;28;20190;-63
2023/02/23 05:17:28;;;;;;;7.68;3.30;;;6.30;99.90;;;;;;2068642;28;20200;-63
2023/02/23 05:18:34;;;;;;;5.82;2.80;;;6.30;99.90;;;;;;2068716;28;20588;-63
2023/02/23 05:19:40;;;;;;;5.05;2.65;;;6.20;99.90;;;;;;2065879;28;20297;-63
2023/02/23 05:20:46;;;;;;;6.07;2.67;;;6.30;99.90;;;;;;2069014;28;20252;-63
2023/02/23 05:21:52;;;;;;;8.20;3.22;;;6.30;99.90;;;;;;2069301;28;20277;-63
2023/02/23 05:22:58;;;;;;;4.72;2.38;;;6.30;99.90;;;;;;2069544;28;20197;-63
2023/02/23 05:24:04;;;;;;;8.00;3.58;;;6.40;99.90;;;;;;2069730;28;20186;-63
2023/02/23 05:25:10;;;;;;;6.45;2.90;;;6.30;99.90;;;;;;2069253;28;20281;-63
2023/02/23 05:26:16;;;;;;;6.15;2.95;;;6.30;99.90;;;;;;2069146;28;20189;-63
2023/02/23 05:27:22;;;;;;;7.00;3.20;;;6.30;99.90;;;;;;2069037;28;20206;-63
2023/02/23 05:28:29;;;;;;;6.78;3.15;;;6.40;99.90;;;;;;2065303;28;20196;-63
2023/02/23 05:29:34;;;;;;;7.93;3.63;;;6.40;99.90;;;;;;2068346;28;20650;-63
2023/02/23 05:30:40;;;;;;;6.05;2.70;;;6.40;99.90;;;;;;2068768;28;20194;-63
2023/02/23 05:31:47;;;;;;;6.13;2.58;;;6.40;99.90;;;;;;2065591;28;20185;-63
2023/02/23 05:32:52;;;;;;;5.65;3.38;;;6.40;99.90;;;;;;2069101;28;20200;-63
2023/02/23 05:33:58;;;;;;;5.38;2.42;;;6.40;99.90;;;;;;2068904;28;20580;-63
2023/02/23 05:35:05;;;;;;;5.65;2.88;;;6.50;99.90;;;;;;2066005;28;20181;-63
2023/02/23 05:36:12;;;;;;;6.35;3.55;;;6.50;99.90;;;;;;2068170;28;20219;-63
2023/02/23 05:37:18;;;;;;;7.43;2.63;;;6.50;99.90;;;;;;2068850;28;20207;-63
2023/02/23 05:38:26;;;;;;;5.35;3.35;;;6.50;99.90;;;;;;2069440;28;20225;-63
2023/02/23 05:39:31;;;;;;;4.85;2.92;;;6.60;99.90;;;;;;2069410;28;20200;-63
2023/02/23 05:40:38;;;;;;;4.93;2.90;;;6.60;99.90;;;;;;2065549;28;20261;-63
2023/02/23 05:41:44;;;;;;;5.82;3.10;;;6.60;99.90;;;;;;2068930;28;20570;-63
2023/02/23 05:42:50;;;;;;;4.22;2.78;;;6.60;99.90;;;;;;2068909;28;20746;-63
2023/02/23 05:43:55;;;;;;;6.32;3.30;;;6.60;99.90;;;;;;2065696;28;20183;-63
2023/02/23 05:45:01;;;;;;;5.90;2.92;;;6.70;99.90;;;;;;2069068;28;20186;-63
2023/02/23 05:46:14;;;;;;;5.47;3.25;;;6.60;99.90;;;;;;2068758;28;20187;-63
2023/02/23 05:47:20;;;;;;;5.28;3.08;;;6.70;99.90;;;;;;2066365;28;20179;-63
2023/02/23 05:48:27;;;;;;;11.60;4.43;;;6.70;99.90;;;;;;2068021;28;20885;-63
2023/02/23 05:49:33;;;;;;;8.30;4.35;;;6.60;99.90;;;;;;2065776;28;20288;-63
2023/02/23 05:50:39;;;;;;;10.75;4.75;;;6.60;99.90;;;;;;2068898;28;20196;-63
2023/02/23 05:51:44;;;;;;;7.65;4.78;;;6.70;99.90;;;;;;2069239;28;20548;-63
2023/02/23 05:52:50;;;;;;;10.23;4.57;;;6.70;99.90;;;;;;2069303;28;20206;-63
2023/02/23 05:53:56;;;;;;;11.32;5.72;;;6.70;99.90;;;;;;2069445;28;20697;-64
2023/02/23 05:55:01;;;;;;;11.68;6.07;;;6.70;99.90;;;;;;2068941;28;20194;-63
2023/02/23 05:56:06;;;;;;;12.13;5.60;;;6.70;99.90;;;;;;2068698;28;20182;-63
2023/02/23 05:57:09;;;;;;;12.52;5.88;;;6.70;99.90;;;;;;2068684;28;20189;-63
2023/02/23 05:58:15;;;;;;;10.55;5.78;;;6.70;99.90;;;;;;2068769;28;20190;-63
2023/02/23 05:59:21;;;;;;;9.88;4.80;;;6.80;99.90;;;;;;2069458;28;20677;-64
2023/02/23 06:00:26;;;;;;;7.35;4.88;;;6.80;99.90;;;;;;2069341;28;20669;-63
2023/02/23 06:01:32;;;;;;;11.20;5.22;;;6.80;99.90;;;;;;2066934;28;20328;-63
2023/02/23 06:02:38;;;;;;;8.35;4.00;;;6.90;99.90;;;;;;2068619;28;20666;-63
2023/02/23 06:03:44;;;;;;;7.95;4.03;;;6.80;99.90;;;;;;2068701;28;20221;-63
2023/02/23 06:04:49;;;;;;;9.95;4.80;;;6.80;99.90;;;;;;2069187;28;20200;-63
2023/02/23 06:05:57;;;;;;;9.55;4.20;;;6.80;99.90;;;;;;2069362;28;20190;-63
2023/02/23 06:07:01;;;;;;;10.52;4.95;;;6.80;99.90;;;;;;2069298;28;20192;-63
2023/02/23 06:08:04;;;;;;;9.32;4.45;;;6.80;99.90;;;;;;2068622;28;20196;-63
2023/02/23 06:09:09;;;;;;;10.55;4.82;;;6.70;99.90;;;;;;2068628;28;20251;-63
2023/02/23 06:10:15;;;;;;;8.32;4.55;;;6.70;99.90;;;;;;2068630;28;20202;-63
2023/02/23 06:11:21;;;;;;;9.45;4.05;;;6.70;99.90;;;;;;2068966;28;20723;-63
2023/02/23 06:12:26;;;;;;;10.07;3.80;;;6.60;99.90;;;;;;2069161;28;20195;-63
2023/02/23 06:13:31;;;;;;;6.00;3.20;;;6.60;99.90;;;;;;2069245;28;20189;-63
2023/02/23 06:14:37;;;;;;;7.50;4.05;;;6.50;99.90;;;;;;2068648;28;20271;-63
2023/02/23 06:15:43;;;;;;;6.47;3.05;;;6.50;99.90;;;;;;2068516;28;20213;-63
2023/02/23 06:16:48;;;;;;;6.55;3.70;;;6.50;99.90;;;;;;2068737;28;20851;-63
2023/02/23 06:17:55;;;;;;;6.95;3.40;;;6.40;99.90;;;;;;2065196;28;20543;-63
2023/02/23 06:18:59;;;;;;;4.70;3.20;;;6.40;99.90;;;;;;2068986;28;20201;-63
2023/02/23 06:20:06;;;;;;;7.40;3.20;;;6.40;99.90;;;;;;2068746;28;20229;-64
2023/02/23 06:21:09;;;;;;;5.47;3.20;;;6.30;99.90;;;;;;2064967;28;20213;-63
2023/02/23 06:22:16;;;;;;;7.07;3.30;;;6.30;99.90;;;;;;2068699;28;20194;-64
2023/02/23 06:23:21;;;;;;;6.22;3.33;;;6.30;99.90;;;;;;2068617;28;20186;-63
2023/02/23 06:24:27;;;;;;;4.63;3.13;;;6.30;99.90;;;;;;2065259;28;20186;-63
2023/02/23 06:25:33;;;;;;;5.20;3.20;;;6.30;99.90;;;;;;2068539;28;20716;-63
2023/02/23 06:26:38;;;;;;;6.63;3.25;;;6.20;99.90;;;;;;2068584;28;20197;-63
2023/02/23 06:27:44;;;;;;;7.10;3.40;;;6.20;99.90;;;;;;2064809;28;20244;-63
2023/02/23 06:28:49;;;;;;;6.95;2.83;;;6.20;99.90;;;;;;2068595;28;20828;-63
2023/02/23 06:29:55;;;;;;;5.97;3.80;;;6.20;99.90;;;;;;2068625;28;20246;-63
2023/02/23 06:31:00;;;;;;;6.55;3.05;;;6.20;99.90;;;;;;2065393;28;20189;-63
2023/02/23 06:32:05;;;;;;;5.25;4.22;;;6.30;99.90;;;;;;2068420;28;20690;-64
2023/02/23 06:33:09;;;;;;;7.93;3.58;;;6.30;99.90;;;;;;2068441;28;20189;-63
2023/02/23 06:34:15;;;;;;;5.40;3.45;;;6.40;99.90;;;;;;2065153;28;20730;-63
2023/02/23 06:35:21;;;;;;;6.20;4.18;;;6.40;99.90;;;;;;2068635;28;20241;-63
2023/02/23 06:36:26;;;;;;;7.13;3.95;;;6.40;99.90;;;;;;2068501;28;20695;-63
2023/02/23 06:37:33;;;;;;;7.00;4.07;;;6.40;99.90;;;;;;2065202;28;20197;-63
2023/02/23 06:38:37;;;;;;;4.95;3.47;;;6.30;99.90;;;;;;2068344;28;20228;-63
2023/02/23 06:39:43;;;;;;;5.10;3.20;;;6.30;99.90;;;;;;2068517;28;20353;-63
2023/02/23 06:40:48;;;;;;;4.95;3.38;;;6.30;99.90;;;;;;2065276;28;20636;-63
2023/02/23 06:41:54;;;;;;;4.70;3.00;;;6.40;99.90;;;;;;2068406;28;20197;-63
2023/02/23 06:43:02;;;;;;;5.85;3.30;;;6.40;99.90;;;;;;2068338;28;20185;-63
2023/02/23 06:44:05;;;;;;;6.35;2.83;;;6.50;99.90;;;;;;2065329;28;20178;-63
2023/02/23 06:45:11;;;;;;;5.35;3.45;;;6.60;99.90;;;;;;2068386;28;20189;-63
2023/02/23 06:46:15;;;;;;;5.22;3.17;;;6.70;99.90;;;;;;2068436;28;20178;-63
2023/02/23 06:47:20;;;;;;;6.85;3.70;;;6.70;99.90;;;;;;2065330;28;20312;-63
2023/02/23 06:48:26;;;;;;;7.05;2.80;;;6.70;99.90;;;;;;2068099;28;20228;-63
2023/02/23 06:49:32;;;;;;;5.28;3.00;;;6.60;99.90;;;;;;2068452;28;20273;-63
2023/02/23 06:50:37;;;;;;;3.97;3.25;;;6.60;99.90;;;;;;2068889;28;20228;-63
2023/02/23 06:51:43;;;;;;;6.47;3.42;;;6.60;99.90;;;;;;2069018;28;20202;-63
2023/02/23 06:52:48;;;;;;;5.47;3.00;;;6.60;99.90;;;;;;2068766;28;20224;-63
2023/02/23 06:53:54;;;;;;;5.50;3.28;;;6.60;99.90;;;;;;2068462;28;20196;-63
2023/02/23 06:54:59;;;;;;;6.68;3.85;;;6.70;99.90;;;;;;2068281;28;20256;-63
2023/02/23 06:56:05;;;;;;;6.47;3.90;;;6.70;99.90;;;;;;2068572;28;20182;-63
2023/02/23 06:57:10;;;;;;;5.72;3.50;;;6.70;99.90;;;;;;2068808;28;20667;-63
2023/02/23 06:58:16;;;;;;;5.60;3.60;;;6.80;99.90;;;;;;2068767;28;20193;-63
2023/02/23 06:59:21;;;;;;;4.53;3.53;;;6.80;99.90;;;;;;2065031;28;20186;-64
2023/02/23 07:00:26;;;;;;;4.80;3.30;;;6.90;99.90;;;;;;2065672;28;20663;-63
2023/02/23 07:01:31;;;;;;;5.18;4.10;;;7.00;99.90;;;;;;2068256;28;20221;-63
2023/02/23 07:02:37;;;;;;;4.50;2.92;;;7.10;99.90;;;;;;2068734;28;20227;-63
2023/02/23 07:03:42;;;;;;;6.97;3.60;;;7.20;99.90;;;;;;2068775;28;20197;-64
2023/02/23 07:04:48;;;;;;;3.33;2.80;;;7.20;99.90;;;;;;2069016;28;20193;-64
2023/02/23 07:05:53;;;;;;;4.88;3.50;;;7.20;99.90;;;;;;2068582;28;20189;-63
2023/02/23 07:06:59;;;;;;;6.60;3.47;;;7.10;99.90;;;;;;2068417;28;20189;-63
2023/02/23 07:08:05;;;;;;;8.10;4.53;;;7.10;99.90;;;;;;2068275;28;20186;-64
2023/02/23 07:09:09;;;;;;;10.02;4.20;;;7.10;99.90;;;;;;2068505;28;20563;-63
2023/02/23 07:10:15;;;;;;;8.48;5.07;;;7.20;99.90;;;;;;2069167;28;20213;-64
2023/02/23 07:11:20;;;;;;;10.00;5.13;;;7.20;99.90;;;;;;2068764;28;20205;-63
2023/02/23 07:12:26;;;;;;;7.70;4.55;;;7.20;99.90;;;;;;2068369;28;20186;-63
2023/02/23 07:13:31;;;;;;;9.73;4.32;;;7.30;99.90;;;;;;2068207;28;20201;-64
2023/02/23 07:14:38;;;;;;;8.98;4.78;;;7.30;99.90;;;;;;2068459;28;20660;-63
2023/02/23 07:15:43;;;;;;;9.80;4.60;;;7.40;99.90;;;;;;2064468;28;20213;-63
2023/02/23 07:16:49;;;;;;;10.55;5.15;;;7.40;99.90;;;;;;2068353;28;20288;-63
2023/02/23 07:17:55;;;;;;;9.20;4.70;;;7.40;99.90;;;;;;2068108;28;20616;-63
2023/02/23 07:19:00;;;;;;;9.38;4.20;;;7.40;99.90;;;;;;2064813;28;20221;-64
2023/02/23 07:20:05;;;;;;;5.45;3.70;;;7.30;99.90;;;;;;2068114;28;20260;-63
2023/02/23 07:21:09;;;;;;;7.65;5.40;;;7.30;99.90;;;;;;2068423;28;20288;-64
2023/02/23 07:22:15;;;;;;;6.18;4.32;;;7.40;99.90;;;;;;2064558;28;20185;-63